createdAt,value
2022-11-05T00:00:07.054Z,62.30
2022-11-05T00:02:52.536Z,62.10
2022-11-05T00:05:37.848Z,62.30
2022-11-05T00:08:23.872Z,62.60
2022-11-05T00:10:50.912Z,62.30
2022-11-05T00:13:36.258Z,62.90
2022-11-05T00:16:21.690Z,62.60
2022-11-05T00:19:06.597Z,62.30
2022-11-05T00:21:53.018Z,62.10
2022-11-05T00:24:38.457Z,62.20
2022-11-05T00:27:05.382Z,62.40
2022-11-05T00:29:32.238Z,62.70
2022-11-05T00:31:59.113Z,62.20
2022-11-05T00:34:26.083Z,62.00
2022-11-05T00:36:53.034Z,62.40
2022-11-05T00:39:22.386Z,61.90
2022-11-05T00:42:09.178Z,62.10
2022-11-05T00:44:54.540Z,62.20
2022-11-05T00:47:40.102Z,62.00
2022-11-05T00:50:07.175Z,62.10
2022-11-05T00:52:52.681Z,61.80
2022-11-05T00:55:19.568Z,62.00
2022-11-05T00:57:46.355Z,61.50
2022-11-05T01:00:13.904Z,62.00
2022-11-05T01:02:40.790Z,61.90
2022-11-05T01:05:08.316Z,62.30
2022-11-05T01:07:35.134Z,62.60
2022-11-05T01:10:02.036Z,62.10
2022-11-05T01:12:29.007Z,62.30
2022-11-05T01:14:55.903Z,62.50
2022-11-05T01:17:22.716Z,62.80
2022-11-05T01:19:49.531Z,62.30
2022-11-05T01:22:16.342Z,62.80
2022-11-05T01:24:43.190Z,62.20
2022-11-05T01:27:10.049Z,62.10
2022-11-05T01:29:36.929Z,62.50
2022-11-05T01:32:03.943Z,61.90
2022-11-05T01:34:30.874Z,62.40
2022-11-05T01:36:57.698Z,62.70
2022-11-05T01:39:24.528Z,62.30
2022-11-05T01:41:51.347Z,62.30
2022-11-05T01:44:51.976Z,62.80
2022-11-05T01:47:36.599Z,62.10
2022-11-05T01:50:19.421Z,62.40
2022-11-05T01:52:47.928Z,62.30
2022-11-05T01:55:19.794Z,62.40
2022-11-05T01:57:46.839Z,62.00
2022-11-05T02:00:14.249Z,62.90
2022-11-05T02:02:41.730Z,63.00
2022-11-05T02:05:11.026Z,62.10
2022-11-05T02:07:37.973Z,62.50
2022-11-05T02:10:08.128Z,62.10
2022-11-05T02:12:39.256Z,62.10
2022-11-05T02:15:07.063Z,62.30
2022-11-05T02:17:52.047Z,62.60
2022-11-05T02:20:50.923Z,61.80
2022-11-05T02:23:27.664Z,61.60
2022-11-05T02:26:08.813Z,62.60
2022-11-05T02:29:08.106Z,63.00
2022-11-05T02:31:37.646Z,62.50
2022-11-05T02:34:31.042Z,62.90
2022-11-05T02:37:35.504Z,62.50
2022-11-05T02:40:29.099Z,62.10
2022-11-05T02:43:19.156Z,62.10
2022-11-05T02:46:28.221Z,62.50
2022-11-05T02:49:27.303Z,62.30
2022-11-05T02:52:06.623Z,62.80
2022-11-05T02:54:43.118Z,62.70
2022-11-05T02:57:10.045Z,62.20
2022-11-05T02:59:36.856Z,62.80
2022-11-05T03:02:05.469Z,62.20
2022-11-05T03:04:32.770Z,62.00
2022-11-05T03:07:22.447Z,62.70
2022-11-05T03:10:11.657Z,62.30
2022-11-05T03:13:00.715Z,62.00
2022-11-05T03:15:48.997Z,61.80
2022-11-05T03:18:28.055Z,62.70
2022-11-05T03:21:00.337Z,62.30
2022-11-05T03:23:41.426Z,62.60
2022-11-05T03:26:35.801Z,62.40
2022-11-05T03:29:06.814Z,62.50
2022-11-05T03:31:35.306Z,62.30
2022-11-05T03:34:05.451Z,62.00
2022-11-05T03:36:41.201Z,62.00
2022-11-05T03:39:17.727Z,61.90
2022-11-05T03:41:49.197Z,61.90
2022-11-05T03:44:21.969Z,62.50
2022-11-05T03:46:50.866Z,62.30
2022-11-05T03:49:29.048Z,62.60
2022-11-05T03:52:04.279Z,62.20
2022-11-05T03:54:31.374Z,62.60
2022-11-05T03:57:06.834Z,62.50
2022-11-05T03:59:46.770Z,62.60
2022-11-05T04:02:15.906Z,62.50
2022-11-05T04:04:43.013Z,63.40
2022-11-05T04:07:29.425Z,62.40
2022-11-05T04:10:15.334Z,62.50
2022-11-05T04:13:00.575Z,62.60
2022-11-05T04:15:29.669Z,62.70
2022-11-05T04:17:58.978Z,61.90
2022-11-05T04:20:44.943Z,62.20
2022-11-05T04:23:30.425Z,63.00
2022-11-05T04:25:57.236Z,62.40
2022-11-05T04:28:44.011Z,62.20
2022-11-05T04:31:10.793Z,62.60
2022-11-05T04:33:37.569Z,62.50
2022-11-05T04:36:04.577Z,62.60
2022-11-05T04:38:31.373Z,62.20
2022-11-05T04:41:16.617Z,63.00
2022-11-05T04:43:44.317Z,62.30
2022-11-05T04:46:11.366Z,62.70
2022-11-05T04:48:38.617Z,63.40
2022-11-05T04:51:05.837Z,62.30
2022-11-05T04:53:32.817Z,62.20
2022-11-05T04:56:16.759Z,62.50
2022-11-05T04:58:44.291Z,63.20
2022-11-05T05:01:17.427Z,62.30
2022-11-05T05:03:46.735Z,62.20
2022-11-05T05:06:13.589Z,62.20
2022-11-05T05:08:40.539Z,63.10
2022-11-05T05:11:10.619Z,62.20
2022-11-05T05:13:37.810Z,62.90
2022-11-05T05:16:18.716Z,63.10
2022-11-05T05:18:46.503Z,62.50
2022-11-05T05:21:32.650Z,63.80
2022-11-05T05:23:59.619Z,61.70
2022-11-05T05:26:26.791Z,62.50
2022-11-05T05:28:54.228Z,63.70
2022-11-05T05:31:22.215Z,63.20
2022-11-05T05:33:49.276Z,63.30
2022-11-05T05:36:16.366Z,61.90
2022-11-05T05:38:43.166Z,63.70
2022-11-05T05:41:10.000Z,62.10
2022-11-05T05:43:36.914Z,63.40
2022-11-05T05:46:05.258Z,64.00
2022-11-05T05:48:32.325Z,63.00
2022-11-05T05:51:07.748Z,62.10
2022-11-05T05:53:34.753Z,62.10
2022-11-05T05:56:01.933Z,62.80
2022-11-05T05:58:33.399Z,63.60
2022-11-05T06:01:01.462Z,62.70
2022-11-05T06:03:28.330Z,62.00
2022-11-05T06:06:01.277Z,63.40
2022-11-05T06:08:28.634Z,62.40
2022-11-05T06:10:55.715Z,61.80
2022-11-05T06:13:22.769Z,62.90
2022-11-05T06:15:49.804Z,62.90
2022-11-05T06:18:16.746Z,64.10
2022-11-05T06:20:43.623Z,63.70
2022-11-05T06:23:10.643Z,64.30
2022-11-05T06:25:41.193Z,64.10
2022-11-05T06:28:08.537Z,64.20
2022-11-05T06:30:35.397Z,64.60
2022-11-05T06:33:03.970Z,64.90
2022-11-05T06:35:31.284Z,64.60
2022-11-05T06:38:01.997Z,64.70
2022-11-05T06:40:29.468Z,64.60
2022-11-05T06:42:56.353Z,64.90
2022-11-05T06:45:23.278Z,64.70
2022-11-05T06:47:58.984Z,64.60
2022-11-05T06:50:27.880Z,64.30
2022-11-05T06:53:01.836Z,65.00
2022-11-05T06:55:30.488Z,64.50
2022-11-05T06:57:57.853Z,65.50
2022-11-05T07:00:25.002Z,65.10
2022-11-05T07:02:51.893Z,65.30
2022-11-05T07:05:18.961Z,65.60
2022-11-05T07:07:46.271Z,65.90
2022-11-05T07:10:18.005Z,65.20
2022-11-05T07:12:44.829Z,65.80
2022-11-05T07:15:12.877Z,65.90
2022-11-05T07:17:40.718Z,66.20
2022-11-05T07:20:08.637Z,66.00
2022-11-05T07:22:36.173Z,65.10
2022-11-05T07:25:03.411Z,66.60
2022-11-05T07:27:30.398Z,66.60
2022-11-05T07:29:57.259Z,68.30
2022-11-05T07:32:24.154Z,67.20
2022-11-05T07:34:51.097Z,68.20
2022-11-05T07:37:18.216Z,68.40
2022-11-05T07:39:45.110Z,68.20
2022-11-05T07:42:13.661Z,69.10
2022-11-05T07:44:40.689Z,68.20
2022-11-05T07:47:08.189Z,68.80
2022-11-05T07:49:35.098Z,70.00
2022-11-05T07:52:01.992Z,68.50
2022-11-05T07:54:28.862Z,68.70
2022-11-05T07:56:55.690Z,68.30
2022-11-05T07:59:22.553Z,68.30
2022-11-05T08:01:49.579Z,67.70
2022-11-05T08:04:16.612Z,68.10
2022-11-05T08:06:43.415Z,68.70
2022-11-05T08:09:10.250Z,67.70
2022-11-05T08:11:37.171Z,68.10
2022-11-05T08:14:04.087Z,68.40
2022-11-05T08:16:31.198Z,68.10
2022-11-05T08:18:58.048Z,68.10
2022-11-05T08:21:24.877Z,67.20
2022-11-05T08:24:24.087Z,66.90
2022-11-05T08:26:51.075Z,66.50
2022-11-05T08:29:17.922Z,65.30
2022-11-05T08:31:44.974Z,66.70
2022-11-05T08:34:12.026Z,65.90
2022-11-05T08:36:42.045Z,65.30
2022-11-05T08:39:14.279Z,65.90
2022-11-05T08:41:43.697Z,65.90
2022-11-05T08:44:10.587Z,65.60
2022-11-05T08:46:41.565Z,65.60
2022-11-05T08:49:08.872Z,65.20
2022-11-05T08:51:35.752Z,65.20
2022-11-05T08:54:02.606Z,65.10
2022-11-05T08:56:29.458Z,65.90
2022-11-05T08:58:56.298Z,65.20
2022-11-05T09:01:23.233Z,64.80
2022-11-05T09:03:51.907Z,65.30
2022-11-05T09:06:22.713Z,65.30
2022-11-05T09:08:49.701Z,64.80
2022-11-05T09:11:18.071Z,65.00
2022-11-05T09:13:44.908Z,64.80
2022-11-05T09:16:23.302Z,66.20
2022-11-05T09:18:50.510Z,64.60
2022-11-05T09:21:18.012Z,64.20
2022-11-05T09:23:47.348Z,64.40
2022-11-05T09:26:14.601Z,64.70
2022-11-05T09:28:43.408Z,64.60
2022-11-05T09:31:11.700Z,65.80
2022-11-05T09:33:40.862Z,63.80
2022-11-05T09:36:08.612Z,63.50
2022-11-05T09:38:36.055Z,63.40
2022-11-05T09:41:22.442Z,62.30
2022-11-05T09:43:51.571Z,62.80
2022-11-05T09:46:24.133Z,62.70
2022-11-05T09:49:12.456Z,62.00
2022-11-05T09:51:40.137Z,61.90
2022-11-05T09:54:07.020Z,61.40
2022-11-05T09:56:37.256Z,61.60
2022-11-05T09:59:19.837Z,61.40
2022-11-05T10:01:47.873Z,61.80
2022-11-05T10:04:21.782Z,60.90
2022-11-05T10:07:11.330Z,60.90
2022-11-05T10:09:47.938Z,60.50
2022-11-05T10:12:30.870Z,61.00
2022-11-05T10:15:13.593Z,60.60
2022-11-05T10:17:46.368Z,60.20
2022-11-05T10:20:24.954Z,60.80
2022-11-05T10:22:56.994Z,59.70
2022-11-05T10:25:27.489Z,61.00
2022-11-05T10:27:55.591Z,60.60
2022-11-05T10:30:23.095Z,60.80
2022-11-05T10:32:55.172Z,60.90
2022-11-05T10:35:24.736Z,61.30
2022-11-05T10:37:53.658Z,60.70
2022-11-05T10:40:35.594Z,61.10
2022-11-05T10:43:13.657Z,59.60
2022-11-05T10:46:15.958Z,60.10
2022-11-05T10:48:46.761Z,59.60
2022-11-05T10:51:14.652Z,59.80
2022-11-05T10:53:51.131Z,60.30
2022-11-05T10:56:31.560Z,59.70
2022-11-05T10:59:00.134Z,58.90
2022-11-05T11:01:27.627Z,59.70
2022-11-05T11:04:15.894Z,59.20
2022-11-05T11:06:51.763Z,58.50
2022-11-05T11:09:27.401Z,58.50
2022-11-05T11:11:59.428Z,59.10
2022-11-05T11:14:27.432Z,59.90
2022-11-05T11:16:57.488Z,58.70
2022-11-05T11:19:33.397Z,57.70
2022-11-05T11:22:05.955Z,58.30
2022-11-05T11:24:44.747Z,58.10
2022-11-05T11:27:23.956Z,58.70
2022-11-05T11:30:02.841Z,58.30
2022-11-05T11:32:36.413Z,58.70
2022-11-05T11:35:05.733Z,59.40
2022-11-05T11:37:42.668Z,59.70
2022-11-05T11:40:22.911Z,58.60
2022-11-05T11:42:54.992Z,58.30
2022-11-05T11:45:32.474Z,58.40
2022-11-05T11:48:02.924Z,57.80
2022-11-05T11:50:37.029Z,59.10
2022-11-05T11:53:34.973Z,58.70
2022-11-05T11:56:06.686Z,58.80
2022-11-05T11:58:49.629Z,59.20
2022-11-05T12:01:30.980Z,58.40
2022-11-05T12:04:11.499Z,58.00
2022-11-05T12:07:01.507Z,58.60
2022-11-05T12:10:02.271Z,58.40
2022-11-05T12:12:41.614Z,58.70
2022-11-05T12:15:29.531Z,58.80
2022-11-05T12:18:02.252Z,59.50
2022-11-05T12:20:58.366Z,58.50
2022-11-05T12:23:53.088Z,58.60
2022-11-05T12:26:23.783Z,58.60
2022-11-05T12:29:20.085Z,58.70
2022-11-05T12:32:01.171Z,58.50
2022-11-05T12:34:54.146Z,58.30
2022-11-05T12:37:30.751Z,58.90
2022-11-05T12:40:14.866Z,58.70
2022-11-05T12:43:11.893Z,59.30
2022-11-05T12:45:54.083Z,58.10
2022-11-05T12:48:36.925Z,57.80
2022-11-05T12:51:13.414Z,58.40
2022-11-05T12:53:46.230Z,58.60
2022-11-05T12:56:19.018Z,59.30
2022-11-05T12:58:52.513Z,58.40
2022-11-05T13:01:46.246Z,59.40
2022-11-05T13:04:30.930Z,58.10
2022-11-05T13:07:00.765Z,57.90
2022-11-05T13:09:41.622Z,57.90
2022-11-05T13:12:12.882Z,58.40
2022-11-05T13:14:45.135Z,58.00
2022-11-05T13:17:22.706Z,58.90
2022-11-05T13:19:52.605Z,59.70
2022-11-05T13:22:52.568Z,57.80
2022-11-05T13:25:21.472Z,58.50
2022-11-05T13:28:01.425Z,58.20
2022-11-05T13:30:38.329Z,57.90
2022-11-05T13:33:14.550Z,58.70
2022-11-05T13:36:14.524Z,58.00
2022-11-05T13:39:00.275Z,58.70
2022-11-05T13:41:38.766Z,58.30
2022-11-05T13:44:32.040Z,58.60
2022-11-05T13:47:22.489Z,58.40
2022-11-05T13:50:30.886Z,58.40
2022-11-05T13:53:00.564Z,58.70
2022-11-05T13:55:55.637Z,58.30
2022-11-05T13:58:37.447Z,58.00
2022-11-05T14:01:24.572Z,58.70
2022-11-05T14:03:53.586Z,59.10
2022-11-05T14:06:36.011Z,58.50
2022-11-05T14:09:08.425Z,58.80
2022-11-05T14:11:38.288Z,58.40
2022-11-05T14:14:08.911Z,58.40
2022-11-05T14:16:50.502Z,58.90
2022-11-05T14:19:20.091Z,58.60
2022-11-05T14:21:50.129Z,58.30
2022-11-05T14:24:40.113Z,58.70
2022-11-05T14:27:06.930Z,57.20
2022-11-05T14:30:00.452Z,58.90
2022-11-05T14:32:43.961Z,58.60
2022-11-05T14:35:16.817Z,58.50
2022-11-05T14:37:56.499Z,58.80
2022-11-05T14:40:32.831Z,58.90
2022-11-05T14:43:06.006Z,58.40
2022-11-05T14:45:35.001Z,59.00
2022-11-05T14:48:21.869Z,58.50
2022-11-05T14:50:49.346Z,58.30
2022-11-05T14:53:45.690Z,58.70
2022-11-05T14:56:18.935Z,58.30
2022-11-05T14:58:46.729Z,58.20
2022-11-05T15:01:13.858Z,58.20
2022-11-05T15:03:45.816Z,58.50
2022-11-05T15:06:24.630Z,59.30
2022-11-05T15:08:51.426Z,58.10
2022-11-05T15:11:18.162Z,58.10
2022-11-05T15:13:53.867Z,58.00
2022-11-05T15:16:29.878Z,58.10
2022-11-05T15:18:57.648Z,58.50
2022-11-05T15:21:25.329Z,57.50
2022-11-05T15:23:56.844Z,58.10
2022-11-05T15:27:01.742Z,59.80
2022-11-05T15:29:31.566Z,61.30
2022-11-05T15:31:59.215Z,60.60
2022-11-05T15:34:28.938Z,59.90
2022-11-05T15:36:59.608Z,59.30
2022-11-05T15:39:43.692Z,60.20
2022-11-05T15:42:15.909Z,59.90
2022-11-05T15:44:48.030Z,60.00
2022-11-05T15:47:34.199Z,59.00
2022-11-05T15:50:07.490Z,59.50
2022-11-05T15:52:48.719Z,60.10
2022-11-05T15:55:20.310Z,60.30
2022-11-05T15:57:51.043Z,60.00
2022-11-05T16:00:23.992Z,59.40
2022-11-05T16:02:58.115Z,60.80
2022-11-05T16:05:28.130Z,59.50
2022-11-05T16:07:58.851Z,58.90
2022-11-05T16:10:30.596Z,59.50
2022-11-05T16:12:57.626Z,59.90
2022-11-05T16:15:29.513Z,60.10
2022-11-05T16:17:59.264Z,60.20
2022-11-05T16:20:28.952Z,58.10
2022-11-05T16:22:59.189Z,58.60
2022-11-05T16:25:31.884Z,60.10
2022-11-05T16:28:00.584Z,60.90
2022-11-05T16:30:28.198Z,61.00
2022-11-05T16:33:02.444Z,62.20
2022-11-05T16:35:29.359Z,62.30
2022-11-05T16:37:56.274Z,62.50
2022-11-05T16:40:25.696Z,62.20
2022-11-05T16:42:54.232Z,62.60
2022-11-05T16:45:23.532Z,62.60
2022-11-05T16:47:51.072Z,66.10
2022-11-05T16:50:19.930Z,63.00
2022-11-05T16:52:47.049Z,63.40
2022-11-05T16:55:15.451Z,67.70
2022-11-05T16:57:48.072Z,65.50
2022-11-05T17:00:17.322Z,64.70
2022-11-05T17:02:45.332Z,64.50
2022-11-05T17:05:27.653Z,62.10
2022-11-05T17:07:55.213Z,63.20
2022-11-05T17:10:23.510Z,63.60
2022-11-05T17:12:51.213Z,63.30
2022-11-05T17:15:35.348Z,62.20
2022-11-05T17:18:03.729Z,61.60
2022-11-05T17:20:36.524Z,61.20
2022-11-05T17:23:07.544Z,61.40
2022-11-05T17:25:35.254Z,62.20
2022-11-05T17:28:03.028Z,62.50
2022-11-05T17:30:29.995Z,62.00
2022-11-05T17:32:57.078Z,60.80
2022-11-05T17:35:24.287Z,61.90
2022-11-05T17:37:51.232Z,61.90
2022-11-05T17:40:19.966Z,60.60
2022-11-05T17:42:46.862Z,61.00
2022-11-05T17:45:14.657Z,60.50
2022-11-05T17:47:41.862Z,60.60
2022-11-05T17:50:12.185Z,60.30
2022-11-05T17:52:39.032Z,62.00
2022-11-05T17:55:16.679Z,60.60
2022-11-05T17:57:48.448Z,60.60
2022-11-05T18:00:18.726Z,58.60
2022-11-05T18:02:46.442Z,60.00
2022-11-05T18:05:13.662Z,59.40
2022-11-05T18:07:41.463Z,60.80
2022-11-05T18:10:09.079Z,60.80
2022-11-05T18:12:36.459Z,59.70
2022-11-05T18:15:03.634Z,59.10
2022-11-05T18:17:30.506Z,60.20
2022-11-05T18:19:57.401Z,59.70
2022-11-05T18:22:26.631Z,59.20
2022-11-05T18:24:54.836Z,59.60
2022-11-05T18:27:24.614Z,59.40
2022-11-05T18:29:51.645Z,59.30
2022-11-05T18:32:18.569Z,60.00
2022-11-05T18:34:45.494Z,59.90
2022-11-05T18:37:12.356Z,59.50
2022-11-05T18:39:39.328Z,59.10
2022-11-05T18:42:06.239Z,59.80
2022-11-05T18:44:38.812Z,58.70
2022-11-05T18:47:06.903Z,59.10
2022-11-05T18:49:34.486Z,59.80
2022-11-05T18:52:01.291Z,59.30
2022-11-05T18:54:28.798Z,59.30
2022-11-05T18:56:55.725Z,58.80
2022-11-05T18:59:36.664Z,59.50
2022-11-05T19:02:04.101Z,59.50
2022-11-05T19:04:31.167Z,58.70
2022-11-05T19:07:03.288Z,59.60
2022-11-05T19:09:31.867Z,59.20
2022-11-05T19:11:58.753Z,59.30
2022-11-05T19:14:25.715Z,59.60
2022-11-05T19:16:52.588Z,58.90
2022-11-05T19:19:19.534Z,59.70
2022-11-05T19:21:46.362Z,59.10
2022-11-05T19:24:20.362Z,57.50
2022-11-05T19:26:48.081Z,59.20
2022-11-05T19:29:14.954Z,58.60
2022-11-05T19:31:42.086Z,58.90
2022-11-05T19:34:09.175Z,59.30
2022-11-05T19:36:36.011Z,60.00
2022-11-05T19:39:06.552Z,59.00
2022-11-05T19:41:33.673Z,58.00
2022-11-05T19:44:03.824Z,58.20
2022-11-05T19:46:31.316Z,58.70
2022-11-05T19:48:59.983Z,59.70
2022-11-05T19:51:29.847Z,60.20
2022-11-05T19:53:58.081Z,57.60
2022-11-05T19:56:27.674Z,58.60
2022-11-05T19:58:54.805Z,59.20
2022-11-05T20:01:23.647Z,58.50
2022-11-05T20:03:51.153Z,59.20
2022-11-05T20:06:21.960Z,59.40
2022-11-05T20:11:37.744Z,59.20
2022-11-05T20:14:05.476Z,60.00
2022-11-05T20:16:37.922Z,62.00
2022-11-05T20:19:06.830Z,60.70
2022-11-05T20:21:34.199Z,61.00
2022-11-05T20:24:01.078Z,62.90
2022-11-05T20:26:28.000Z,59.90
2022-11-05T20:28:55.602Z,60.40
2022-11-05T20:31:22.823Z,61.60
2022-11-05T20:33:50.162Z,62.40
2022-11-05T20:36:19.827Z,59.80
2022-11-05T20:38:52.605Z,62.00
2022-11-05T20:41:19.754Z,61.60
2022-11-05T20:43:48.010Z,61.40
2022-11-05T20:46:16.962Z,60.80
2022-11-05T20:48:44.392Z,61.60
2022-11-05T20:51:14.196Z,59.70
2022-11-05T20:53:41.651Z,61.70
2022-11-05T20:56:09.344Z,61.80
2022-11-05T20:58:37.582Z,60.60
2022-11-05T21:01:05.574Z,60.40
2022-11-05T21:03:33.117Z,62.90
2022-11-05T21:06:04.468Z,61.80
2022-11-05T21:08:32.335Z,62.10
2022-11-05T21:10:59.593Z,61.10
2022-11-05T21:13:27.311Z,59.80
2022-11-05T21:15:59.077Z,62.20
2022-11-05T21:18:28.533Z,62.50
2022-11-05T21:20:55.780Z,62.70
2022-11-05T21:23:23.027Z,60.90
2022-11-05T21:25:49.925Z,61.60
2022-11-05T21:28:16.873Z,61.90
2022-11-05T21:30:45.847Z,61.20
2022-11-05T21:33:14.237Z,59.50
2022-11-05T21:35:50.103Z,62.00
2022-11-05T21:38:17.542Z,60.90
2022-11-05T21:40:45.455Z,60.60
2022-11-05T21:43:13.195Z,60.10
2022-11-05T21:45:44.338Z,60.90
2022-11-05T21:48:12.244Z,60.20
2022-11-05T21:50:58.111Z,59.40
2022-11-05T21:53:43.945Z,60.10
2022-11-05T21:56:38.825Z,61.00
2022-11-05T21:59:24.424Z,60.30
2022-11-05T22:02:01.236Z,61.00
2022-11-05T22:04:33.544Z,58.70
2022-11-05T22:07:00.926Z,59.20
2022-11-05T22:09:28.318Z,61.00
2022-11-05T22:11:55.511Z,59.80
2022-11-05T22:14:23.043Z,60.40
2022-11-05T22:16:50.039Z,58.70
2022-11-05T22:19:16.986Z,60.50
2022-11-05T22:21:43.946Z,59.90
2022-11-05T22:24:10.741Z,60.30
2022-11-05T22:26:38.919Z,61.60
2022-11-05T22:29:06.925Z,60.60
2022-11-05T22:31:36.541Z,58.20
2022-11-05T22:34:04.789Z,61.20
2022-11-05T22:36:33.210Z,60.40
2022-11-05T22:39:00.312Z,59.60
2022-11-05T22:41:27.308Z,59.50
2022-11-05T22:43:54.596Z,59.50
2022-11-05T22:46:23.893Z,60.10
2022-11-05T22:48:51.230Z,61.00
2022-11-05T22:51:21.270Z,60.70
2022-11-05T22:53:48.934Z,61.50
2022-11-05T22:56:18.474Z,59.80
2022-11-05T22:58:45.619Z,60.60
2022-11-05T23:01:13.605Z,59.70
2022-11-05T23:03:42.097Z,60.70
2022-11-05T23:06:36.530Z,59.70
2022-11-05T23:09:25.005Z,62.40
2022-11-05T23:11:53.542Z,61.10
2022-11-05T23:14:20.413Z,61.30
2022-11-05T23:17:05.684Z,60.60
2022-11-05T23:19:51.006Z,60.20
2022-11-05T23:22:45.760Z,60.80
2022-11-05T23:25:17.046Z,59.80
2022-11-05T23:27:45.374Z,58.50
2022-11-05T23:30:18.968Z,60.20
2022-11-05T23:32:46.050Z,58.50
2022-11-05T23:35:13.388Z,60.00
2022-11-05T23:38:16.018Z,61.10
2022-11-05T23:41:02.983Z,60.60
2022-11-05T23:43:48.269Z,59.50
2022-11-05T23:46:33.658Z,60.00
2022-11-05T23:49:00.667Z,60.40
2022-11-05T23:51:27.466Z,59.60
2022-11-05T23:53:54.315Z,60.80
2022-11-05T23:56:21.130Z,59.90
2022-11-05T23:58:48.133Z,60.60
